sensor_id;sensor_type;location;lat;lon;timestamp;temperature;humidity
76759;DHT22;65701;45.588;5.186;2023-02-28T00:01:30;1.42;62.84
76759;DHT22;65701;45.588;5.186;2023-02-28T00:03:57;1.40;62.84
76759;DHT22;65701;45.588;5.186;2023-02-28T00:06:22;1.38;62.84
76759;DHT22;65701;45.588;5.186;2023-02-28T00:08:49;1.38;62.92
76759;DHT22;65701;45.588;5.186;2023-02-28T00:11:15;1.37;63.09
76759;DHT22;65701;45.588;5.186;2023-02-28T00:13:43;1.35;63.22
76759;DHT22;65701;45.588;5.186;2023-02-28T00:16:14;1.37;63.21
76759;DHT22;65701;45.588;5.186;2023-02-28T00:18:40;1.40;63.25
76759;DHT22;65701;45.588;5.186;2023-02-28T00:21:06;1.41;63.25
76759;DHT22;65701;45.588;5.186;2023-02-28T00:23:32;1.41;63.28
76759;DHT22;65701;45.588;5.186;2023-02-28T00:25:58;1.41;63.25
76759;DHT22;65701;45.588;5.186;2023-02-28T00:28:24;1.42;63.18
76759;DHT22;65701;45.588;5.186;2023-02-28T00:30:49;1.44;63.10
76759;DHT22;65701;45.588;5.186;2023-02-28T00:33:15;1.42;63.04
76759;DHT22;65701;45.588;5.186;2023-02-28T00:35:42;1.44;62.99
76759;DHT22;65701;45.588;5.186;2023-02-28T00:38:08;1.42;62.91
76759;DHT22;65701;45.588;5.186;2023-02-28T00:40:34;1.37;62.92
76759;DHT22;65701;45.588;5.186;2023-02-28T00:43:00;1.38;63.00
76759;DHT22;65701;45.588;5.186;2023-02-28T00:45:25;1.38;63.13
76759;DHT22;65701;45.588;5.186;2023-02-28T00:47:51;1.35;63.22
76759;DHT22;65701;45.588;5.186;2023-02-28T00:50:17;1.34;63.38
76759;DHT22;65701;45.588;5.186;2023-02-28T00:52:44;1.37;63.46
76759;DHT22;65701;45.588;5.186;2023-02-28T00:55:09;1.37;63.44
76759;DHT22;65701;45.588;5.186;2023-02-28T00:57:35;1.40;63.59
76759;DHT22;65701;45.588;5.186;2023-02-28T01:00:01;1.38;63.69
76759;DHT22;65701;45.588;5.186;2023-02-28T01:02:26;1.40;63.80
76759;DHT22;65701;45.588;5.186;2023-02-28T01:04:52;1.42;63.71
76759;DHT22;65701;45.588;5.186;2023-02-28T01:07:17;1.48;63.69
76759;DHT22;65701;45.588;5.186;2023-02-28T01:09:43;1.51;63.67
76759;DHT22;65701;45.588;5.186;2023-02-28T01:12:08;1.54;63.78
76759;DHT22;65701;45.588;5.186;2023-02-28T01:14:35;1.55;63.75
76759;DHT22;65701;45.588;5.186;2023-02-28T01:17:01;1.59;63.68
76759;DHT22;65701;45.588;5.186;2023-02-28T01:19:27;1.60;63.65
76759;DHT22;65701;45.588;5.186;2023-02-28T01:21:52;1.63;63.78
76759;DHT22;65701;45.588;5.186;2023-02-28T01:24:18;1.60;63.92
76759;DHT22;65701;45.588;5.186;2023-02-28T01:26:43;1.59;63.93
76759;DHT22;65701;45.588;5.186;2023-02-28T01:29:09;1.56;64.11
76759;DHT22;65701;45.588;5.186;2023-02-28T01:31:34;1.59;64.17
76759;DHT22;65701;45.588;5.186;2023-02-28T01:34:00;1.56;64.39
76759;DHT22;65701;45.588;5.186;2023-02-28T01:36:25;1.55;64.39
76759;DHT22;65701;45.588;5.186;2023-02-28T01:38:51;1.56;64.33
76759;DHT22;65701;45.588;5.186;2023-02-28T01:41:20;1.60;64.36
76759;DHT22;65701;45.588;5.186;2023-02-28T01:46:12;1.58;64.37
76759;DHT22;65701;45.588;5.186;2023-02-28T01:48:50;1.62;64.34
76759;DHT22;65701;45.588;5.186;2023-02-28T01:51:22;1.62;64.34
76759;DHT22;65701;45.588;5.186;2023-02-28T01:53:56;1.62;64.25
76759;DHT22;65701;45.588;5.186;2023-02-28T01:56:28;1.66;64.13
76759;DHT22;65701;45.588;5.186;2023-02-28T01:58:55;1.68;64.17
76759;DHT22;65701;45.588;5.186;2023-02-28T02:01:22;1.66;64.20
76759;DHT22;65701;45.588;5.186;2023-02-28T02:03:50;1.66;64.21
76759;DHT22;65701;45.588;5.186;2023-02-28T02:06:35;1.69;64.15
76759;DHT22;65701;45.588;5.186;2023-02-28T02:09:01;1.70;64.20
76759;DHT22;65701;45.588;5.186;2023-02-28T02:11:27;1.72;64.23
76759;DHT22;65701;45.588;5.186;2023-02-28T02:17:19;1.75;64.10
76759;DHT22;65701;45.588;5.186;2023-02-28T02:25:56;1.72;64.61
76759;DHT22;65701;45.588;5.186;2023-02-28T02:36:45;1.65;64.75
76759;DHT22;65701;45.588;5.186;2023-02-28T02:39:30;1.66;64.68
76759;DHT22;65701;45.588;5.186;2023-02-28T02:42:01;1.63;64.55
76759;DHT22;65701;45.588;5.186;2023-02-28T02:44:43;1.65;64.55
76759;DHT22;65701;45.588;5.186;2023-02-28T02:47:18;1.68;64.50
76759;DHT22;65701;45.588;5.186;2023-02-28T02:49:52;1.65;64.64
76759;DHT22;65701;45.588;5.186;2023-02-28T02:52:23;1.63;64.60
76759;DHT22;65701;45.588;5.186;2023-02-28T02:54:52;1.59;64.66
76759;DHT22;65701;45.588;5.186;2023-02-28T02:57:24;1.56;64.88
76759;DHT22;65701;45.588;5.186;2023-02-28T02:59:52;1.58;64.96
76759;DHT22;65701;45.588;5.186;2023-02-28T03:02:21;1.56;64.83
76759;DHT22;65701;45.588;5.186;2023-02-28T03:04:52;1.55;64.71
76759;DHT22;65701;45.588;5.186;2023-02-28T03:07:18;1.56;64.71
76759;DHT22;65701;45.588;5.186;2023-02-28T03:09:55;1.56;64.77
76759;DHT22;65701;45.588;5.186;2023-02-28T03:12:24;1.59;64.62
76759;DHT22;65701;45.588;5.186;2023-02-28T03:15:26;1.66;64.60
76759;DHT22;65701;45.588;5.186;2023-02-28T03:18:02;1.65;64.61
76759;DHT22;65701;45.588;5.186;2023-02-28T03:23:13;1.58;64.98
76759;DHT22;65701;45.588;5.186;2023-02-28T03:28:31;1.59;64.85
76759;DHT22;65701;45.588;5.186;2023-02-28T03:31:09;1.56;65.05
76759;DHT22;65701;45.588;5.186;2023-02-28T03:33:54;1.51;64.99
76759;DHT22;65701;45.588;5.186;2023-02-28T03:36:26;1.49;64.95
76759;DHT22;65701;45.588;5.186;2023-02-28T03:39:02;1.49;64.83
76759;DHT22;65701;45.588;5.186;2023-02-28T03:41:53;1.48;64.73
76759;DHT22;65701;45.588;5.186;2023-02-28T03:44:50;1.45;64.66
76759;DHT22;65701;45.588;5.186;2023-02-28T03:47:25;1.45;64.57
76759;DHT22;65701;45.588;5.186;2023-02-28T03:50:31;1.41;64.51
76759;DHT22;65701;45.588;5.186;2023-02-28T03:55:48;1.38;64.28
76759;DHT22;65701;45.588;5.186;2023-02-28T03:58:32;1.38;64.25
76759;DHT22;65701;45.588;5.186;2023-02-28T04:01:08;1.32;64.18
76759;DHT22;65701;45.588;5.186;2023-02-28T04:03:36;1.31;64.14
76759;DHT22;65701;45.588;5.186;2023-02-28T04:06:02;1.30;64.14
76759;DHT22;65701;45.588;5.186;2023-02-28T04:08:29;1.34;64.13
76759;DHT22;65701;45.588;5.186;2023-02-28T04:11:01;1.30;64.19
76759;DHT22;65701;45.588;5.186;2023-02-28T04:13:28;1.28;64.08
76759;DHT22;65701;45.588;5.186;2023-02-28T04:15:54;1.24;64.05
76759;DHT22;65701;45.588;5.186;2023-02-28T04:18:19;1.19;63.99
76759;DHT22;65701;45.588;5.186;2023-02-28T04:20:45;1.20;64.01
76759;DHT22;65701;45.588;5.186;2023-02-28T04:23:10;1.17;64.02
76759;DHT22;65701;45.588;5.186;2023-02-28T04:25:35;1.14;64.01
76759;DHT22;65701;45.588;5.186;2023-02-28T04:28:01;1.14;64.03
76759;DHT22;65701;45.588;5.186;2023-02-28T04:30:26;1.12;63.99
76759;DHT22;65701;45.588;5.186;2023-02-28T04:32:52;1.08;64.10
76759;DHT22;65701;45.588;5.186;2023-02-28T04:35:17;1.05;64.17
76759;DHT22;65701;45.588;5.186;2023-02-28T04:37:43;1.08;64.17
76759;DHT22;65701;45.588;5.186;2023-02-28T04:40:09;1.04;64.20
76759;DHT22;65701;45.588;5.186;2023-02-28T04:42:34;1.01;64.25
76759;DHT22;65701;45.588;5.186;2023-02-28T04:45:04;1.03;64.29
76759;DHT22;65701;45.588;5.186;2023-02-28T04:47:30;0.96;64.43
76759;DHT22;65701;45.588;5.186;2023-02-28T04:49:55;0.92;64.52
76759;DHT22;65701;45.588;5.186;2023-02-28T04:52:21;0.87;64.50
76759;DHT22;65701;45.588;5.186;2023-02-28T04:54:46;0.86;64.48
76759;DHT22;65701;45.588;5.186;2023-02-28T04:57:12;0.85;64.45
76759;DHT22;65701;45.588;5.186;2023-02-28T04:59:37;0.85;64.45
76759;DHT22;65701;45.588;5.186;2023-02-28T05:02:03;0.85;64.51
76759;DHT22;65701;45.588;5.186;2023-02-28T05:04:35;0.85;64.51
76759;DHT22;65701;45.588;5.186;2023-02-28T05:07:01;0.82;64.52
76759;DHT22;65701;45.588;5.186;2023-02-28T05:09:27;0.86;64.59
76759;DHT22;65701;45.588;5.186;2023-02-28T05:11:53;0.89;64.57
76759;DHT22;65701;45.588;5.186;2023-02-28T05:14:19;0.87;64.62
76759;DHT22;65701;45.588;5.186;2023-02-28T05:16:45;0.87;64.71
76759;DHT22;65701;45.588;5.186;2023-02-28T05:19:10;0.86;64.84
76759;DHT22;65701;45.588;5.186;2023-02-28T05:21:39;0.87;64.75
76759;DHT22;65701;45.588;5.186;2023-02-28T05:24:11;0.92;64.73
76759;DHT22;65701;45.588;5.186;2023-02-28T05:26:40;0.90;64.88
76759;DHT22;65701;45.588;5.186;2023-02-28T05:29:06;0.93;64.86
76759;DHT22;65701;45.588;5.186;2023-02-28T05:31:32;0.92;64.95
76759;DHT22;65701;45.588;5.186;2023-02-28T05:33:58;0.96;64.90
76759;DHT22;65701;45.588;5.186;2023-02-28T05:36:23;0.99;65.06
76759;DHT22;65701;45.588;5.186;2023-02-28T05:38:50;1.00;65.06
76759;DHT22;65701;45.588;5.186;2023-02-28T05:41:17;1.01;65.09
76759;DHT22;65701;45.588;5.186;2023-02-28T05:43:42;0.99;65.06
76759;DHT22;65701;45.588;5.186;2023-02-28T05:46:10;1.01;65.24
76759;DHT22;65701;45.588;5.186;2023-02-28T05:48:37;0.99;65.31
76759;DHT22;65701;45.588;5.186;2023-02-28T05:51:04;0.99;65.23
76759;DHT22;65701;45.588;5.186;2023-02-28T05:53:30;0.97;65.18
76759;DHT22;65701;45.588;5.186;2023-02-28T05:55:56;0.96;65.23
76759;DHT22;65701;45.588;5.186;2023-02-28T05:58:22;0.90;65.22
76759;DHT22;65701;45.588;5.186;2023-02-28T06:00:48;0.92;65.08
76759;DHT22;65701;45.588;5.186;2023-02-28T06:03:14;0.90;64.97
76759;DHT22;65701;45.588;5.186;2023-02-28T06:05:39;0.89;64.86
76759;DHT22;65701;45.588;5.186;2023-02-28T06:08:05;0.87;64.79
76759;DHT22;65701;45.588;5.186;2023-02-28T06:10:34;0.89;64.73
76759;DHT22;65701;45.588;5.186;2023-02-28T06:13:01;0.89;64.73
76759;DHT22;65701;45.588;5.186;2023-02-28T06:15:28;0.86;64.71
76759;DHT22;65701;45.588;5.186;2023-02-28T06:17:54;0.90;64.64
76759;DHT22;65701;45.588;5.186;2023-02-28T06:20:22;0.89;64.65
76759;DHT22;65701;45.588;5.186;2023-02-28T06:22:47;0.86;64.62
76759;DHT22;65701;45.588;5.186;2023-02-28T06:25:13;0.87;64.55
76759;DHT22;65701;45.588;5.186;2023-02-28T06:27:39;0.82;64.55
76759;DHT22;65701;45.588;5.186;2023-02-28T06:30:04;0.85;64.54
76759;DHT22;65701;45.588;5.186;2023-02-28T06:32:30;0.86;64.51
76759;DHT22;65701;45.588;5.186;2023-02-28T06:34:56;0.82;64.54
76759;DHT22;65701;45.588;5.186;2023-02-28T06:37:23;0.80;64.51
76759;DHT22;65701;45.588;5.186;2023-02-28T06:39:52;0.80;64.57
76759;DHT22;65701;45.588;5.186;2023-02-28T06:42:17;0.77;64.66
76759;DHT22;65701;45.588;5.186;2023-02-28T06:44:43;0.79;64.68
76759;DHT22;65701;45.588;5.186;2023-02-28T06:47:08;0.76;64.70
76759;DHT22;65701;45.588;5.186;2023-02-28T06:49:35;0.72;64.68
76759;DHT22;65701;45.588;5.186;2023-02-28T06:52:00;0.69;64.72
76759;DHT22;65701;45.588;5.186;2023-02-28T06:54:26;0.69;64.66
76759;DHT22;65701;45.588;5.186;2023-02-28T06:56:52;0.68;64.60
76759;DHT22;65701;45.588;5.186;2023-02-28T06:59:19;0.68;64.68
76759;DHT22;65701;45.588;5.186;2023-02-28T07:01:45;0.73;64.65
76759;DHT22;65701;45.588;5.186;2023-02-28T07:04:11;0.72;64.55
76759;DHT22;65701;45.588;5.186;2023-02-28T07:06:38;0.72;64.53
76759;DHT22;65701;45.588;5.186;2023-02-28T07:09:04;0.75;64.51
76759;DHT22;65701;45.588;5.186;2023-02-28T07:11:29;0.80;64.41
76759;DHT22;65701;45.588;5.186;2023-02-28T07:13:56;0.80;64.40
76759;DHT22;65701;45.588;5.186;2023-02-28T07:16:22;0.83;64.40
76759;DHT22;65701;45.588;5.186;2023-02-28T07:18:48;0.80;64.47
76759;DHT22;65701;45.588;5.186;2023-02-28T07:21:14;0.82;64.46
76759;DHT22;65701;45.588;5.186;2023-02-28T07:23:40;0.82;64.49
76759;DHT22;65701;45.588;5.186;2023-02-28T07:26:11;0.83;64.52
76759;DHT22;65701;45.588;5.186;2023-02-28T07:28:38;0.87;64.49
76759;DHT22;65701;45.588;5.186;2023-02-28T07:31:05;0.92;64.54
76759;DHT22;65701;45.588;5.186;2023-02-28T07:33:31;0.93;64.54
76759;DHT22;65701;45.588;5.186;2023-02-28T07:36:04;0.94;64.50
76759;DHT22;65701;45.588;5.186;2023-02-28T07:38:30;0.96;64.40
76759;DHT22;65701;45.588;5.186;2023-02-28T07:40:55;0.97;64.42
76759;DHT22;65701;45.588;5.186;2023-02-28T07:43:21;1.01;64.30
76759;DHT22;65701;45.588;5.186;2023-02-28T07:45:46;1.07;64.36
76759;DHT22;65701;45.588;5.186;2023-02-28T07:48:12;1.10;64.30
76759;DHT22;65701;45.588;5.186;2023-02-28T07:50:37;1.12;64.25
76759;DHT22;65701;45.588;5.186;2023-02-28T07:53:03;1.14;64.14
76759;DHT22;65701;45.588;5.186;2023-02-28T07:55:29;1.17;64.08
76759;DHT22;65701;45.588;5.186;2023-02-28T07:57:56;1.21;64.21
76759;DHT22;65701;45.588;5.186;2023-02-28T08:00:22;1.31;64.29
76759;DHT22;65701;45.588;5.186;2023-02-28T08:02:48;1.38;64.27
76759;DHT22;65701;45.588;5.186;2023-02-28T08:05:14;1.42;64.23
76759;DHT22;65701;45.588;5.186;2023-02-28T08:07:40;1.48;64.04
76759;DHT22;65701;45.588;5.186;2023-02-28T08:10:06;1.48;63.89
76759;DHT22;65701;45.588;5.186;2023-02-28T08:12:31;1.51;63.86
76759;DHT22;65701;45.588;5.186;2023-02-28T08:14:57;1.55;63.85
76759;DHT22;65701;45.588;5.186;2023-02-28T08:17:22;1.60;63.73
76759;DHT22;65701;45.588;5.186;2023-02-28T08:19:48;1.66;63.64
76759;DHT22;65701;45.588;5.186;2023-02-28T08:22:14;1.78;63.60
76759;DHT22;65701;45.588;5.186;2023-02-28T08:24:41;1.95;63.60
76759;DHT22;65701;45.588;5.186;2023-02-28T08:27:08;2.02;63.49
76759;DHT22;65701;45.588;5.186;2023-02-28T08:29:33;2.17;63.58
76759;DHT22;65701;45.588;5.186;2023-02-28T08:31:58;2.34;63.56
76759;DHT22;65701;45.588;5.186;2023-02-28T08:34:24;2.49;63.43
76759;DHT22;65701;45.588;5.186;2023-02-28T08:36:49;2.65;63.11
76759;DHT22;65701;45.588;5.186;2023-02-28T08:39:15;2.79;62.92
76759;DHT22;65701;45.588;5.186;2023-02-28T08:41:42;2.95;62.75
76759;DHT22;65701;45.588;5.186;2023-02-28T09:52:05;4.00;60.32
76759;DHT22;65701;45.588;5.186;2023-02-28T14:18:49;5.59;57.09
76759;DHT22;65701;45.588;5.186;2023-02-28T14:35:05;5.89;57.49
76759;DHT22;65701;45.588;5.186;2023-02-28T14:38:52;5.96;57.42
76759;DHT22;65701;45.588;5.186;2023-02-28T14:45:48;6.01;57.19
76759;DHT22;65701;45.588;5.186;2023-02-28T14:48:09;5.94;56.99
76759;DHT22;65701;45.588;5.186;2023-02-28T15:08:46;5.83;56.99
76759;DHT22;65701;45.588;5.186;2023-02-28T15:22:35;5.60;57.21
76759;DHT22;65701;45.588;5.186;2023-02-28T15:24:59;5.67;57.27
76759;DHT22;65701;45.588;5.186;2023-02-28T15:27:30;5.60;57.21
76759;DHT22;65701;45.588;5.186;2023-02-28T15:30:05;5.49;57.26
76759;DHT22;65701;45.588;5.186;2023-02-28T15:32:36;5.49;57.33
76759;DHT22;65701;45.588;5.186;2023-02-28T15:40:40;5.44;57.42
76759;DHT22;65701;45.588;5.186;2023-02-28T15:43:17;5.38;57.39
76759;DHT22;65701;45.588;5.186;2023-02-28T15:46:02;5.38;57.49
76759;DHT22;65701;45.588;5.186;2023-02-28T15:48:31;5.39;57.61
76759;DHT22;65701;45.588;5.186;2023-02-28T15:53:45;5.39;57.60
76759;DHT22;65701;45.588;5.186;2023-02-28T15:56:40;5.39;57.67
76759;DHT22;65701;45.588;5.186;2023-02-28T15:59:15;5.41;57.68
76759;DHT22;65701;45.588;5.186;2023-02-28T16:01:41;5.39;57.65
76759;DHT22;65701;45.588;5.186;2023-02-28T16:04:15;5.36;57.63
76759;DHT22;65701;45.588;5.186;2023-02-28T16:09:13;5.28;57.68
76759;DHT22;65701;45.588;5.186;2023-02-28T16:11:49;5.25;57.69
76759;DHT22;65701;45.588;5.186;2023-02-28T16:14:21;5.20;57.68
76759;DHT22;65701;45.588;5.186;2023-02-28T16:16:52;5.21;57.79
76759;DHT22;65701;45.588;5.186;2023-02-28T16:19:19;5.18;57.89
76759;DHT22;65701;45.588;5.186;2023-02-28T16:21:45;5.14;57.93
76759;DHT22;65701;45.588;5.186;2023-02-28T16:24:11;5.10;57.99
76759;DHT22;65701;45.588;5.186;2023-02-28T16:26:38;5.13;58.01
76759;DHT22;65701;45.588;5.186;2023-02-28T16:29:05;5.14;58.06
76759;DHT22;65701;45.588;5.186;2023-02-28T16:31:56;5.14;58.13
76759;DHT22;65701;45.588;5.186;2023-02-28T16:37:39;5.06;58.34
76759;DHT22;65701;45.588;5.186;2023-02-28T16:40:09;5.11;58.42
76759;DHT22;65701;45.588;5.186;2023-02-28T16:42:38;4.99;58.48
76759;DHT22;65701;45.588;5.186;2023-02-28T16:45:04;5.01;58.50
76759;DHT22;65701;45.588;5.186;2023-02-28T16:47:30;4.94;58.52
76759;DHT22;65701;45.588;5.186;2023-02-28T16:49:57;4.87;58.65
76759;DHT22;65701;45.588;5.186;2023-02-28T16:52:23;4.87;58.75
76759;DHT22;65701;45.588;5.186;2023-02-28T16:54:48;4.80;58.82
76759;DHT22;65701;45.588;5.186;2023-02-28T16:57:20;4.80;58.96
76759;DHT22;65701;45.588;5.186;2023-02-28T16:59:49;4.75;59.04
76759;DHT22;65701;45.588;5.186;2023-02-28T17:02:19;4.69;59.10
76759;DHT22;65701;45.588;5.186;2023-02-28T17:04:45;4.73;59.29
76759;DHT22;65701;45.588;5.186;2023-02-28T17:07:15;4.70;59.43
76759;DHT22;65701;45.588;5.186;2023-02-28T17:09:42;4.69;59.43
76759;DHT22;65701;45.588;5.186;2023-02-28T17:12:11;4.63;59.41
76759;DHT22;65701;45.588;5.186;2023-02-28T17:14:37;4.65;59.49
76759;DHT22;65701;45.588;5.186;2023-02-28T17:17:04;4.63;59.55
76759;DHT22;65701;45.588;5.186;2023-02-28T17:19:30;4.61;59.52
76759;DHT22;65701;45.588;5.186;2023-02-28T17:21:55;4.62;59.56
76759;DHT22;65701;45.588;5.186;2023-02-28T17:24:21;4.51;59.59
76759;DHT22;65701;45.588;5.186;2023-02-28T17:26:46;4.51;59.74
76759;DHT22;65701;45.588;5.186;2023-02-28T17:29:17;4.46;59.75
76759;DHT22;65701;45.588;5.186;2023-02-28T17:31:43;4.44;59.89
76759;DHT22;65701;45.588;5.186;2023-02-28T17:34:09;4.45;59.86
76759;DHT22;65701;45.588;5.186;2023-02-28T17:36:35;4.42;60.04
76759;DHT22;65701;45.588;5.186;2023-02-28T17:39:03;4.42;60.10
76759;DHT22;65701;45.588;5.186;2023-02-28T17:41:29;4.34;60.21
76759;DHT22;65701;45.588;5.186;2023-02-28T17:43:56;4.28;60.29
76759;DHT22;65701;45.588;5.186;2023-02-28T17:46:36;4.28;60.26
76759;DHT22;65701;45.588;5.186;2023-02-28T17:49:03;4.24;60.29
76759;DHT22;65701;45.588;5.186;2023-02-28T17:54:55;4.25;60.46
76759;DHT22;65701;45.588;5.186;2023-02-28T17:57:20;4.22;60.48
76759;DHT22;65701;45.588;5.186;2023-02-28T17:59:46;4.18;60.58
76759;DHT22;65701;45.588;5.186;2023-02-28T18:02:14;4.18;60.71
76759;DHT22;65701;45.588;5.186;2023-02-28T18:04:40;4.16;60.72
76759;DHT22;65701;45.588;5.186;2023-02-28T18:07:10;4.11;60.72
76759;DHT22;65701;45.588;5.186;2023-02-28T18:09:37;4.11;60.77
76759;DHT22;65701;45.588;5.186;2023-02-28T18:12:02;4.10;60.87
76759;DHT22;65701;45.588;5.186;2023-02-28T18:14:28;4.03;60.86
76759;DHT22;65701;45.588;5.186;2023-02-28T18:16:54;4.00;61.05
76759;DHT22;65701;45.588;5.186;2023-02-28T18:19:22;3.97;61.08
76759;DHT22;65701;45.588;5.186;2023-02-28T18:21:49;4.00;61.19
76759;DHT22;65701;45.588;5.186;2023-02-28T18:24:15;4.04;61.27
76759;DHT22;65701;45.588;5.186;2023-02-28T18:26:42;4.04;61.19
76759;DHT22;65701;45.588;5.186;2023-02-28T18:29:15;4.00;61.17
76759;DHT22;65701;45.588;5.186;2023-02-28T18:31:42;4.00;61.19
76759;DHT22;65701;45.588;5.186;2023-02-28T18:34:07;3.98;61.20
76759;DHT22;65701;45.588;5.186;2023-02-28T18:36:32;3.87;61.14
76759;DHT22;65701;45.588;5.186;2023-02-28T18:38:58;3.94;61.30
76759;DHT22;65701;45.588;5.186;2023-02-28T18:41:24;3.93;61.22
76759;DHT22;65701;45.588;5.186;2023-02-28T18:43:51;3.93;61.34
76759;DHT22;65701;45.588;5.186;2023-02-28T18:46:18;3.93;61.36
76759;DHT22;65701;45.588;5.186;2023-02-28T18:48:45;3.89;61.42
76759;DHT22;65701;45.588;5.186;2023-02-28T18:51:16;3.89;61.33
76759;DHT22;65701;45.588;5.186;2023-02-28T18:54:11;3.85;61.37
76759;DHT22;65701;45.588;5.186;2023-02-28T18:57:24;3.82;61.41
76759;DHT22;65701;45.588;5.186;2023-02-28T19:00:14;3.85;61.51
76759;DHT22;65701;45.588;5.186;2023-02-28T19:02:52;3.79;61.60
76759;DHT22;65701;45.588;5.186;2023-02-28T19:08:20;3.78;61.73
76759;DHT22;65701;45.588;5.186;2023-02-28T19:10:45;3.73;61.74
76759;DHT22;65701;45.588;5.186;2023-02-28T19:13:11;3.75;61.74
76759;DHT22;65701;45.588;5.186;2023-02-28T19:15:36;3.75;61.75
76759;DHT22;65701;45.588;5.186;2023-02-28T19:18:02;3.75;61.79
76759;DHT22;65701;45.588;5.186;2023-02-28T19:20:27;3.72;61.88
76759;DHT22;65701;45.588;5.186;2023-02-28T19:23:09;3.73;61.88
76759;DHT22;65701;45.588;5.186;2023-02-28T19:25:40;3.72;61.98
76759;DHT22;65701;45.588;5.186;2023-02-28T19:28:08;3.73;61.95
76759;DHT22;65701;45.588;5.186;2023-02-28T19:30:34;3.69;62.00
76759;DHT22;65701;45.588;5.186;2023-02-28T19:40:16;3.58;62.09
76759;DHT22;65701;45.588;5.186;2023-02-28T19:43:08;3.61;62.13
76759;DHT22;65701;45.588;5.186;2023-02-28T19:52:36;3.55;62.25
76759;DHT22;65701;45.588;5.186;2023-02-28T19:55:51;3.54;62.26
76759;DHT22;65701;45.588;5.186;2023-02-28T19:58:49;3.55;62.31
76759;DHT22;65701;45.588;5.186;2023-02-28T20:04:53;3.55;62.29
76759;DHT22;65701;45.588;5.186;2023-02-28T20:21:09;3.42;62.44
76759;DHT22;65701;45.588;5.186;2023-02-28T20:26:52;3.46;62.53
76759;DHT22;65701;45.588;5.186;2023-02-28T20:29:17;3.44;62.59
76759;DHT22;65701;45.588;5.186;2023-02-28T20:31:43;3.44;62.60
76759;DHT22;65701;45.588;5.186;2023-02-28T20:43:39;3.45;62.64
76759;DHT22;65701;45.588;5.186;2023-02-28T20:46:05;3.44;62.73
76759;DHT22;65701;45.588;5.186;2023-02-28T20:48:37;3.44;62.82
76759;DHT22;65701;45.588;5.186;2023-02-28T20:51:06;3.42;62.76
76759;DHT22;65701;45.588;5.186;2023-02-28T20:53:33;3.34;62.88
76759;DHT22;65701;45.588;5.186;2023-02-28T20:56:02;3.38;63.04
76759;DHT22;65701;45.588;5.186;2023-02-28T20:58:31;3.36;63.15
76759;DHT22;65701;45.588;5.186;2023-02-28T21:04:10;3.38;63.25
76759;DHT22;65701;45.588;5.186;2023-02-28T21:06:39;3.34;63.34
76759;DHT22;65701;45.588;5.186;2023-02-28T21:09:09;3.35;63.36
76759;DHT22;65701;45.588;5.186;2023-02-28T21:11:36;3.36;63.33
76759;DHT22;65701;45.588;5.186;2023-02-28T21:14:08;3.36;63.37
76759;DHT22;65701;45.588;5.186;2023-02-28T21:16:35;3.36;63.41
76759;DHT22;65701;45.588;5.186;2023-02-28T21:19:01;3.39;63.47
76759;DHT22;65701;45.588;5.186;2023-02-28T21:21:32;3.36;63.41
